createdAt,value
2022-09-07T00:01:23.976Z,98995.41
2022-09-07T00:03:50.697Z,99009.31
2022-09-07T00:06:17.353Z,99023.25
2022-09-07T00:08:43.905Z,99046.78
2022-09-07T00:11:18.100Z,99045.69
2022-09-07T00:13:54.832Z,99054.94
2022-09-07T00:16:25.561Z,99047.00
2022-09-07T00:19:00.643Z,99032.34
2022-09-07T00:21:28.494Z,99031.63
2022-09-07T00:23:55.954Z,99035.03
2022-09-07T00:26:25.300Z,99028.16
2022-09-07T00:28:54.620Z,99027.25
2022-09-07T00:31:23.167Z,99021.22
2022-09-07T00:33:54.415Z,99009.13
2022-09-07T00:36:22.172Z,98995.81
2022-09-07T00:38:48.983Z,98989.88
2022-09-07T00:41:16.554Z,98985.56
2022-09-07T00:43:52.879Z,98981.94
2022-09-07T00:46:22.764Z,98983.75
2022-09-07T00:49:09.395Z,98974.16
2022-09-07T00:51:41.326Z,98962.00
2022-09-07T00:54:11.103Z,98949.75
2022-09-07T00:56:43.135Z,98949.84
2022-09-07T00:59:11.366Z,98949.84
2022-09-07T01:01:39.277Z,98945.63
2022-09-07T01:04:06.175Z,98943.00
2022-09-07T01:06:35.353Z,98937.81
2022-09-07T01:09:12.481Z,98942.13
2022-09-07T01:12:01.070Z,98955.25
2022-09-07T01:14:36.593Z,98958.44
2022-09-07T01:17:24.292Z,98956.63
2022-09-07T01:20:20.475Z,98960.19
2022-09-07T01:23:14.063Z,98963.63
2022-09-07T01:26:04.954Z,98981.66
2022-09-07T01:28:34.949Z,98973.09
2022-09-07T01:31:30.790Z,98968.84
2022-09-07T01:34:25.739Z,98980.16
2022-09-07T01:37:21.678Z,98969.69
2022-09-07T01:39:57.607Z,98982.84
2022-09-07T01:42:31.643Z,98981.94
2022-09-07T01:45:01.242Z,98980.09
2022-09-07T01:47:36.286Z,98985.31
2022-09-07T01:50:16.327Z,98990.53
2022-09-07T01:53:07.410Z,99003.38
2022-09-07T01:55:37.562Z,99005.22
2022-09-07T01:58:36.969Z,99001.78
2022-09-07T02:01:10.960Z,99002.50
2022-09-07T02:03:57.328Z,99004.19
2022-09-07T02:06:31.288Z,98992.97
2022-09-07T02:09:19.583Z,98986.91
2022-09-07T02:11:48.011Z,98978.25
2022-09-07T02:14:24.082Z,98979.25
2022-09-07T02:17:02.852Z,98986.84
2022-09-07T02:19:35.729Z,98990.25
2022-09-07T02:22:09.867Z,98991.38
2022-09-07T02:24:41.140Z,98994.84
2022-09-07T02:27:15.463Z,99003.59
2022-09-07T02:29:52.024Z,99005.41
2022-09-07T02:32:18.898Z,99008.91
2022-09-07T02:34:48.343Z,99012.38
2022-09-07T02:37:25.717Z,99020.16
2022-09-07T02:39:52.447Z,99014.09
2022-09-07T02:42:21.644Z,99013.19
2022-09-07T02:44:52.062Z,99015.88
2022-09-07T02:47:35.717Z,99003.50
2022-09-07T02:50:18.945Z,99002.59
2022-09-07T02:53:17.712Z,99001.59
2022-09-07T02:56:25.750Z,99006.84
2022-09-07T02:59:18.451Z,98995.38
2022-09-07T03:02:06.396Z,98998.16
2022-09-07T03:05:08.920Z,98997.28
2022-09-07T03:07:44.230Z,98994.50
2022-09-07T03:10:14.703Z,98989.16
2022-09-07T03:12:44.936Z,98999.75
2022-09-07T03:15:13.643Z,99005.66
2022-09-07T03:17:41.000Z,99005.59
2022-09-07T03:20:08.759Z,98999.66
2022-09-07T03:22:35.432Z,98995.31
2022-09-07T03:25:13.279Z,99001.44
2022-09-07T03:27:40.662Z,99009.19
2022-09-07T03:30:09.309Z,99007.91
2022-09-07T03:32:37.590Z,98998.41
2022-09-07T03:35:05.551Z,98997.25
2022-09-07T03:37:32.240Z,99002.63
2022-09-07T03:39:59.021Z,99006.97
2022-09-07T03:42:25.684Z,99007.88
2022-09-07T03:44:52.387Z,99016.72
2022-09-07T03:47:20.474Z,99011.22
2022-09-07T03:49:47.212Z,99003.19
2022-09-07T03:52:13.836Z,99002.44
2022-09-07T03:54:40.926Z,99007.50
2022-09-07T03:57:07.839Z,99003.19
2022-09-07T03:59:38.065Z,99011.16
2022-09-07T04:02:07.770Z,99011.25
2022-09-07T04:04:34.410Z,99006.75
2022-09-07T04:07:01.458Z,99000.50
2022-09-07T04:09:28.506Z,99009.38
2022-09-07T04:11:55.419Z,99005.16
2022-09-07T04:14:22.558Z,99011.19
2022-09-07T04:16:49.933Z,99020.00
2022-09-07T04:19:17.564Z,99027.06
2022-09-07T04:21:47.147Z,99027.63
2022-09-07T04:24:15.246Z,99020.72
2022-09-07T04:26:43.539Z,99019.84
2022-09-07T04:29:13.199Z,99024.94
2022-09-07T04:31:40.030Z,99023.94
2022-09-07T04:34:10.359Z,99028.38
2022-09-07T04:36:37.034Z,99030.22
2022-09-07T04:39:05.091Z,99027.50
2022-09-07T04:41:33.460Z,99030.81
2022-09-07T04:44:04.326Z,99027.31
2022-09-07T04:46:36.085Z,99028.22
2022-09-07T04:49:06.613Z,99024.75
2022-09-07T04:51:33.593Z,99035.09
2022-09-07T04:54:02.211Z,99024.03
2022-09-07T04:56:30.093Z,99023.75
2022-09-07T04:58:56.952Z,99031.41
2022-09-07T05:01:25.065Z,99028.88
2022-09-07T05:03:52.480Z,99026.22
2022-09-07T05:06:20.497Z,99022.00
2022-09-07T05:08:50.270Z,99031.53
2022-09-07T05:11:17.722Z,99041.19
2022-09-07T05:13:44.580Z,99043.72
2022-09-07T05:16:16.920Z,99045.28
2022-09-07T05:18:44.095Z,99054.72
2022-09-07T05:21:23.236Z,99050.34
2022-09-07T05:23:54.270Z,99062.41
2022-09-07T05:26:23.094Z,99063.16
2022-09-07T05:28:50.725Z,99067.28
2022-09-07T05:31:19.884Z,99073.34
2022-09-07T05:36:35.350Z,99085.63
2022-09-07T05:39:06.022Z,99086.66
2022-09-07T05:41:38.272Z,99092.81
2022-09-07T05:46:54.485Z,99091.22
2022-09-07T05:49:21.268Z,99102.34
2022-09-07T05:51:50.945Z,99110.13
2022-09-07T05:54:17.606Z,99104.13
2022-09-07T05:56:44.178Z,99101.47
2022-09-07T05:59:10.754Z,99113.91
2022-09-07T06:01:38.529Z,99106.94
2022-09-07T06:04:05.148Z,99102.91
2022-09-07T06:06:31.745Z,99108.28
2022-09-07T06:08:58.872Z,99106.13
2022-09-07T06:11:29.238Z,99102.66
2022-09-07T06:14:05.545Z,99107.09
2022-09-07T06:16:34.918Z,99107.06
2022-09-07T06:19:06.314Z,99109.75
2022-09-07T06:21:36.581Z,99113.56
2022-09-07T06:24:06.014Z,99104.09
2022-09-07T06:26:32.678Z,99107.69
2022-09-07T06:28:59.319Z,99105.88
2022-09-07T06:31:26.725Z,99098.16
2022-09-07T06:33:55.066Z,99109.53
2022-09-07T06:36:23.903Z,99111.59
2022-09-07T06:38:51.571Z,99109.94
2022-09-07T06:44:14.916Z,99122.13
2022-09-07T06:49:28.004Z,99126.63
2022-09-07T06:51:54.644Z,99123.22
2022-09-07T06:57:10.845Z,99126.81
2022-09-07T06:59:38.040Z,99137.22
2022-09-07T07:02:05.876Z,99135.69
2022-09-07T07:04:36.508Z,99126.97
2022-09-07T07:07:06.614Z,99137.28
2022-09-07T07:09:33.417Z,99146.00
2022-09-07T07:12:03.380Z,99142.38
2022-09-07T07:17:29.363Z,99137.56
2022-09-07T07:19:56.097Z,99137.66
2022-09-07T07:25:11.917Z,99140.38
2022-09-07T07:27:42.135Z,99135.31
2022-09-07T07:30:09.274Z,99144.00
2022-09-07T07:32:37.702Z,99135.38
2022-09-07T07:35:04.405Z,99147.63
2022-09-07T07:37:33.633Z,99145.84
2022-09-07T07:40:17.477Z,99151.13
2022-09-07T07:42:46.746Z,99152.84
2022-09-07T07:48:01.346Z,99159.91
2022-09-07T07:50:31.374Z,99159.00
2022-09-07T07:55:45.485Z,99169.44
2022-09-07T07:58:12.875Z,99174.66
2022-09-07T08:00:53.871Z,99171.22
2022-09-07T08:03:25.314Z,99173.03
2022-09-07T08:05:52.211Z,99168.56
2022-09-07T08:08:19.033Z,99168.59
2022-09-07T08:10:48.007Z,99169.66
2022-09-07T08:13:15.521Z,99172.34
2022-09-07T08:15:47.681Z,99174.94
2022-09-07T08:18:16.223Z,99170.53
2022-09-07T08:20:43.100Z,99181.91
2022-09-07T08:23:09.671Z,99180.22
2022-09-07T08:25:36.373Z,99185.28
2022-09-07T08:28:04.064Z,99181.91
2022-09-07T08:30:30.687Z,99188.06
2022-09-07T08:32:59.522Z,99174.06
2022-09-07T08:35:26.035Z,99181.91
2022-09-07T08:37:52.555Z,99181.91
2022-09-07T08:40:22.041Z,99180.19
2022-09-07T08:42:57.633Z,99190.66
2022-09-07T08:45:49.210Z,99179.31
2022-09-07T08:48:23.462Z,99173.97
2022-09-07T08:50:57.159Z,99184.53
2022-09-07T08:53:25.577Z,99183.66
2022-09-07T08:55:56.874Z,99183.69
2022-09-07T08:58:49.589Z,99178.47
2022-09-07T09:01:31.940Z,99178.47
2022-09-07T09:06:52.687Z,99174.84
2022-09-07T09:09:51.045Z,99190.50
2022-09-07T09:12:38.376Z,99187.97
2022-09-07T09:15:10.467Z,99187.88
2022-09-07T09:17:41.703Z,99177.34
2022-09-07T09:20:08.364Z,99178.38
2022-09-07T09:22:35.364Z,99184.47
2022-09-07T09:25:15.526Z,99180.81
2022-09-07T09:27:42.257Z,99181.63
2022-09-07T09:30:14.368Z,99186.22
2022-09-07T09:32:43.229Z,99185.38
2022-09-07T09:35:34.415Z,99192.25
2022-09-07T09:38:03.634Z,99183.38
2022-09-07T09:40:36.009Z,99188.59
2022-09-07T09:43:20.907Z,99194.56
2022-09-07T09:46:13.154Z,99195.34
2022-09-07T09:48:41.685Z,99194.38
2022-09-07T09:53:58.156Z,99209.66
2022-09-07T09:56:44.785Z,99212.31
2022-09-07T10:05:36.731Z,99205.31
2022-09-07T10:08:15.125Z,99199.16
2022-09-07T10:10:51.305Z,99196.53
2022-09-07T10:13:23.671Z,99193.81
2022-09-07T10:15:52.243Z,99186.00
2022-09-07T10:18:29.196Z,99193.47
2022-09-07T10:21:16.456Z,99202.41
2022-09-07T10:23:43.211Z,99182.56
2022-09-07T10:26:35.877Z,99181.06
2022-09-07T10:29:17.069Z,99176.09
2022-09-07T10:31:55.792Z,99187.50
2022-09-07T10:34:45.938Z,99181.97
2022-09-07T10:37:20.562Z,99174.31
2022-09-07T10:40:16.503Z,99189.19
2022-09-07T10:45:43.192Z,99179.22
2022-09-07T10:48:24.653Z,99169.00
2022-09-07T10:50:56.945Z,99171.88
2022-09-07T10:53:42.330Z,99174.16
2022-09-07T10:56:15.260Z,99173.97
2022-09-07T10:59:02.229Z,99171.22
2022-09-07T11:01:50.239Z,99171.38
2022-09-07T11:04:19.789Z,99156.69
2022-09-07T11:06:50.620Z,99148.81
2022-09-07T11:09:55.744Z,99138.91
2022-09-07T11:12:28.143Z,99137.13
2022-09-07T11:15:13.292Z,99129.91
2022-09-07T11:17:56.279Z,99131.72
2022-09-07T11:20:23.133Z,99130.28
2022-09-07T11:23:19.482Z,99135.91
2022-09-07T11:26:23.700Z,99146.38
2022-09-07T11:31:45.500Z,99138.00
2022-09-07T11:34:29.297Z,99135.59
2022-09-07T11:37:01.193Z,99126.50
2022-09-07T11:39:35.518Z,99118.88
2022-09-07T11:42:43.577Z,99114.25
2022-09-07T11:45:43.879Z,99109.41
2022-09-07T11:48:35.587Z,99114.69
2022-09-07T11:51:11.005Z,99118.19
2022-09-07T11:53:42.811Z,99115.34
2022-09-07T11:56:20.280Z,99114.38
2022-09-07T11:59:11.925Z,99110.50
2022-09-07T12:01:49.851Z,99111.03
2022-09-07T12:04:35.779Z,99108.78
2022-09-07T12:07:24.058Z,99102.66
2022-09-07T12:10:05.398Z,99100.38
2022-09-07T12:13:11.562Z,99092.16
2022-09-07T12:15:56.149Z,99090.34
2022-09-07T12:18:50.557Z,99087.72
2022-09-07T12:21:41.676Z,99086.31
2022-09-07T12:24:39.121Z,99073.44
2022-09-07T12:27:22.792Z,99081.19
2022-09-07T12:29:58.416Z,99068.00
2022-09-07T12:32:54.966Z,99074.69
2022-09-07T12:35:28.522Z,99071.72
2022-09-07T12:38:08.338Z,99065.19
2022-09-07T12:40:34.870Z,99054.25
2022-09-07T12:43:16.832Z,99063.31
2022-09-07T12:45:48.468Z,99061.88
2022-09-07T12:48:14.992Z,99059.66
2022-09-07T12:51:59.367Z,99050.31
2022-09-07T12:54:17.400Z,99052.88
2022-09-07T12:57:29.594Z,99059.09
2022-09-07T13:00:23.226Z,99071.84
2022-09-07T13:02:49.779Z,99072.91
2022-09-07T13:05:41.203Z,99079.63
2022-09-07T13:08:52.752Z,99072.63
2022-09-07T13:11:19.212Z,99073.44
2022-09-07T13:14:04.988Z,99070.25
2022-09-07T13:19:46.491Z,99066.59
2022-09-07T13:22:31.449Z,99061.97
2022-09-07T13:25:03.294Z,99052.53
2022-09-07T13:28:00.854Z,99052.34
2022-09-07T13:30:33.983Z,99034.91
2022-09-07T13:33:36.414Z,99034.53
2022-09-07T13:36:17.413Z,99019.22
2022-09-07T13:38:45.433Z,99016.97
2022-09-07T13:41:22.638Z,99012.34
2022-09-07T13:44:03.166Z,99007.06
2022-09-07T13:47:05.207Z,99006.00
2022-09-07T13:49:55.598Z,99005.97
2022-09-07T13:52:29.588Z,99003.59
2022-09-07T13:55:30.742Z,98986.13
2022-09-07T13:58:12.137Z,98971.19
2022-09-07T14:00:53.280Z,98971.91
2022-09-07T14:03:23.998Z,98982.41
2022-09-07T14:06:22.718Z,98967.59
2022-09-07T14:08:56.465Z,98971.41
2022-09-07T14:11:38.700Z,98972.00
2022-09-07T14:14:17.470Z,98976.28
2022-09-07T14:16:51.674Z,98979.13
2022-09-07T14:19:34.758Z,98980.72
2022-09-07T14:22:06.854Z,98972.25
2022-09-07T14:24:41.371Z,98967.84
2022-09-07T14:27:25.738Z,98971.59
2022-09-07T14:29:53.351Z,98989.75
2022-09-07T14:32:28.894Z,99003.59
2022-09-07T14:34:56.266Z,99007.13
2022-09-07T14:37:25.856Z,99014.03
2022-09-07T14:39:58.683Z,99011.38
2022-09-07T14:42:26.968Z,99005.09
2022-09-07T14:45:20.242Z,98987.06
2022-09-07T14:48:07.593Z,98976.06
2022-09-07T14:50:53.986Z,98969.53
2022-09-07T14:53:34.648Z,98965.06
2022-09-07T14:56:49.071Z,98953.56
2022-09-07T14:59:49.171Z,98986.09
2022-09-07T15:02:30.357Z,99001.94
2022-09-07T15:05:27.221Z,98988.31
2022-09-07T15:08:02.952Z,98975.94
2022-09-07T15:10:31.599Z,98977.81
2022-09-07T15:13:00.104Z,98974.31
2022-09-07T15:15:34.273Z,98977.81
2022-09-07T15:18:09.024Z,98964.03
2022-09-07T15:20:46.067Z,98977.13
2022-09-07T15:23:20.713Z,98969.41
2022-09-07T15:25:54.176Z,98957.31
2022-09-07T15:34:12.013Z,98945.28
2022-09-07T15:36:41.049Z,98951.19
2022-09-07T15:39:25.339Z,98956.59
2022-09-07T15:41:53.941Z,98949.78
2022-09-07T15:45:08.245Z,98945.50
2022-09-07T15:56:03.242Z,98948.84
2022-09-07T15:58:39.282Z,98957.47
2022-09-07T16:04:14.244Z,98947.75
2022-09-07T16:06:43.820Z,98950.38
2022-09-07T16:09:32.989Z,98938.19
2022-09-07T16:13:00.015Z,98934.94
2022-09-07T16:15:03.763Z,98935.19
2022-09-07T16:17:47.134Z,98929.94
2022-09-07T16:20:14.807Z,98930.81
2022-09-07T16:25:28.651Z,98921.31
2022-09-07T16:27:55.655Z,98919.38
2022-09-07T16:30:22.530Z,98906.09
2022-09-07T16:32:51.087Z,98908.66
2022-09-07T16:35:29.365Z,98908.56
2022-09-07T16:40:43.599Z,98915.53
2022-09-07T16:43:11.772Z,98911.88
2022-09-07T16:48:27.849Z,98893.03
2022-09-07T16:51:01.245Z,98888.56
2022-09-07T16:53:29.499Z,98885.84
2022-09-07T16:56:08.185Z,98894.81
2022-09-07T16:58:47.993Z,98898.19
2022-09-07T17:01:18.578Z,98887.84
2022-09-07T17:03:45.997Z,98883.59
2022-09-07T17:06:17.233Z,98886.22
2022-09-07T17:08:44.125Z,98889.78
2022-09-07T17:14:06.528Z,98881.34
2022-09-07T17:16:37.520Z,98882.97
2022-09-07T17:21:53.779Z,98892.56
2022-09-07T17:24:21.068Z,98894.31
2022-09-07T17:26:47.852Z,98899.59
2022-09-07T17:29:14.753Z,98912.84
2022-09-07T17:34:30.830Z,98912.88
2022-09-07T17:36:57.657Z,98907.66
2022-09-07T17:39:24.491Z,98904.31
2022-09-07T17:41:54.751Z,98899.94
2022-09-07T17:44:24.737Z,98900.84
2022-09-07T17:46:51.571Z,98891.19
2022-09-07T17:49:21.697Z,98888.44
2022-09-07T17:51:51.269Z,98885.03
2022-09-07T17:54:18.070Z,98886.09
2022-09-07T17:56:47.807Z,98880.00
2022-09-07T18:02:05.906Z,98869.38
2022-09-07T18:04:32.801Z,98848.50
2022-09-07T18:06:59.962Z,98846.81
2022-09-07T18:09:27.153Z,98847.06
2022-09-07T18:11:56.032Z,98858.28
2022-09-07T18:14:22.753Z,98853.97
2022-09-07T18:16:50.305Z,98854.03
2022-09-07T18:19:18.403Z,98853.94
2022-09-07T18:21:45.944Z,98859.09
2022-09-07T18:24:19.046Z,98852.16
2022-09-07T18:26:51.776Z,98850.47
2022-09-07T18:29:36.769Z,98853.97
2022-09-07T18:32:09.825Z,98848.81
2022-09-07T18:34:38.408Z,98842.97
2022-09-07T18:37:06.111Z,98833.28
2022-09-07T18:39:36.754Z,98843.91
2022-09-07T18:42:03.996Z,98833.38
2022-09-07T18:47:23.183Z,98852.59
2022-09-07T18:49:54.916Z,98845.69
2022-09-07T18:55:29.173Z,98843.00
2022-09-07T18:57:56.358Z,98836.09
2022-09-07T19:00:23.216Z,98824.72
2022-09-07T19:02:50.391Z,98821.19
2022-09-07T19:08:07.019Z,98821.25
2022-09-07T19:10:35.892Z,98816.88
2022-09-07T19:13:03.236Z,98811.81
2022-09-07T19:15:32.258Z,98807.44
2022-09-07T19:18:02.323Z,98808.31
2022-09-07T19:20:29.315Z,98814.41
2022-09-07T19:22:56.576Z,98812.69
2022-09-07T19:25:23.478Z,98823.16
2022-09-07T19:27:50.072Z,98821.38
2022-09-07T19:30:22.451Z,98824.91
2022-09-07T19:33:06.646Z,98814.47
2022-09-07T19:35:38.906Z,98816.19
2022-09-07T19:38:05.823Z,98806.63
2022-09-07T19:40:32.351Z,98806.63
2022-09-07T19:42:58.882Z,98806.66
2022-09-07T19:45:30.510Z,98804.03
2022-09-07T19:48:04.646Z,98804.91
2022-09-07T19:50:39.940Z,98809.16
2022-09-07T19:53:06.533Z,98801.41
2022-09-07T19:55:33.083Z,98808.34
2022-09-07T20:01:06.055Z,98793.59
2022-09-07T20:03:45.349Z,98797.00
2022-09-07T20:06:14.597Z,98790.03
2022-09-07T20:09:02.580Z,98792.63
2022-09-07T20:11:35.778Z,98781.16
2022-09-07T20:14:02.893Z,98763.88
2022-09-07T20:16:42.064Z,98764.72
2022-09-07T20:19:22.434Z,98778.59
2022-09-07T20:21:54.071Z,98783.75
2022-09-07T20:24:26.415Z,98794.19
2022-09-07T20:26:54.808Z,98795.91
2022-09-07T20:29:29.324Z,98791.69
2022-09-07T20:31:58.325Z,98785.56
2022-09-07T20:34:26.104Z,98789.06
2022-09-07T20:36:58.857Z,98804.59
2022-09-07T20:39:34.675Z,98808.03
2022-09-07T20:42:05.308Z,98802.75
2022-09-07T20:44:32.110Z,98806.25
2022-09-07T20:46:58.935Z,98811.41
2022-09-07T20:49:25.612Z,98821.75
2022-09-07T20:51:52.399Z,98818.34
2022-09-07T20:54:19.152Z,98822.66
2022-09-07T20:56:46.017Z,98820.91
2022-09-07T20:59:12.686Z,98816.50
2022-09-07T21:01:39.522Z,98813.13
2022-09-07T21:04:06.453Z,98817.19
2022-09-07T21:06:33.428Z,98824.16
2022-09-07T21:09:00.508Z,98820.53
2022-09-07T21:11:32.919Z,98815.38
2022-09-07T21:14:08.102Z,98821.47
2022-09-07T21:16:36.024Z,98818.88
2022-09-07T21:19:08.782Z,98820.72
2022-09-07T21:21:39.203Z,98824.13
2022-09-07T21:24:07.002Z,98819.88
2022-09-07T21:26:33.547Z,98807.59
2022-09-07T21:29:02.158Z,98801.25
2022-09-07T21:31:33.680Z,98807.47
2022-09-07T21:34:01.662Z,98806.59
2022-09-07T21:36:39.386Z,98812.84
2022-09-07T21:39:12.463Z,98809.34
2022-09-07T21:41:41.081Z,98798.91
2022-09-07T21:44:08.097Z,98800.59
2022-09-07T21:46:34.929Z,98793.88
2022-09-07T21:49:02.081Z,98804.94
2022-09-07T21:51:28.793Z,98795.44
2022-09-07T21:53:57.258Z,98795.50
2022-09-07T21:56:24.435Z,98802.44
2022-09-07T21:58:55.453Z,98799.75
2022-09-07T22:01:26.464Z,98797.72
2022-09-07T22:03:58.570Z,98783.59
2022-09-07T22:06:27.917Z,98781.13
2022-09-07T22:08:55.299Z,98780.16
2022-09-07T22:11:25.855Z,98778.50
2022-09-07T22:14:00.490Z,98771.75
2022-09-07T22:16:27.149Z,98785.59
2022-09-07T22:18:53.773Z,98793.38
2022-09-07T22:21:25.311Z,98798.63
2022-09-07T22:23:55.452Z,98789.22
2022-09-07T22:26:24.295Z,98782.38
2022-09-07T22:28:50.954Z,98780.72
2022-09-07T22:31:23.096Z,98772.03
2022-09-07T22:33:50.831Z,98770.34
2022-09-07T22:36:30.201Z,98766.91
2022-09-07T22:38:58.849Z,98770.47
2022-09-07T22:41:28.110Z,98776.56
2022-09-07T22:43:54.848Z,98754.84
2022-09-07T22:46:26.334Z,98737.41
2022-09-07T22:49:05.939Z,98723.63
2022-09-07T22:51:36.168Z,98720.19
2022-09-07T22:54:02.886Z,98719.31
2022-09-07T22:56:31.417Z,98717.53
2022-09-07T22:59:04.899Z,98714.97
2022-09-07T23:01:32.216Z,98711.50
2022-09-07T23:03:59.393Z,98711.44
2022-09-07T23:06:30.487Z,98718.47
2022-09-07T23:08:58.831Z,98716.72
2022-09-07T23:11:25.840Z,98705.44
2022-09-07T23:13:56.140Z,98686.34
2022-09-07T23:16:22.996Z,98675.06
2022-09-07T23:18:52.756Z,98663.81
2022-09-07T23:21:19.386Z,98668.16
2022-09-07T23:23:53.889Z,98672.53
2022-09-07T23:26:25.029Z,98684.69
2022-09-07T23:28:56.688Z,98689.00
2022-09-07T23:31:24.613Z,98686.38
2022-09-07T23:33:55.774Z,98687.19
2022-09-07T23:36:22.453Z,98682.88
2022-09-07T23:38:49.104Z,98667.19
2022-09-07T23:41:19.566Z,98667.22
2022-09-07T23:43:48.315Z,98649.81
2022-09-07T23:46:15.472Z,98633.38
2022-09-07T23:48:46.247Z,98618.66
2022-09-07T23:51:18.696Z,98620.41
2022-09-07T23:53:48.142Z,98621.31
2022-09-07T23:56:14.736Z,98620.44
2022-09-07T23:58:41.648Z,98616.09
